Time;durP1;ratioP1;P1;durP2;ratioP2;P2;SDS_P1;SDS_P2;PMS_P1;PMS_P2;Temp;Humidity;BMP_temperature;BMP_pressure;BME280_temperature;BME280_humidity;BME280_pressure;Samples;Min_cycle;Max_cycle;Signal;HPM_P1;HPM_P2
2022/11/08 07:52:42;;;;;;;31.30;18.93;;;;;;;13.42;94.44;95391.72;5065543;23;20287;-76
2022/11/08 07:55:08;;;;;;;38.77;19.00;;;;;;;13.43;94.09;95392.53;4955511;28;20261;-77
2022/11/08 07:57:33;;;;;;;33.03;19.13;;;;;;;13.38;93.97;95374.69;4954598;29;20187;-78
2022/11/08 07:59:58;;;;;;;33.07;18.60;;;;;;;13.47;94.22;95383.97;4955455;28;20605;-78
2022/11/08 08:02:24;;;;;;;33.10;18.03;;;;;;;13.37;94.20;95366.97;4955983;29;20259;-78
2022/11/08 08:04:49;;;;;;;32.07;18.20;;;;;;;13.50;94.33;95377.44;4955791;29;20545;-79
2022/11/08 08:07:15;;;;;;;34.07;18.47;;;;;;;13.60;94.34;95383.03;4954882;28;20635;-79
2022/11/08 08:09:40;;;;;;;35.40;18.70;;;;;;;13.55;94.12;95374.97;4955638;29;20179;-80
2022/11/08 08:12:07;;;;;;;43.63;22.80;;;;;;;13.73;93.82;95393.53;4955328;29;20178;-78
2022/11/08 08:14:32;;;;;;;64.63;41.23;;;;;;;13.80;93.55;95389.00;4955043;28;20209;-76
2022/11/08 08:16:58;;;;;;;77.83;47.63;;;;;;;13.69;93.44;95362.41;4954547;28;20226;-76
2022/11/08 08:19:23;;;;;;;61.67;38.67;;;;;;;13.85;93.12;95369.78;4953831;29;20221;-77
2022/11/08 08:21:49;;;;;;;52.17;28.73;;;;;;;13.75;92.89;95359.69;4952654;28;20174;-77
2022/11/08 08:24:14;;;;;;;33.40;18.77;;;;;;;14.08;94.16;95391.19;4953012;29;20257;-78
2022/11/08 08:26:39;;;;;;;33.87;17.87;;;;;;;14.18;93.39;95395.97;4952572;29;20239;-78
2022/11/08 08:29:06;;;;;;;33.73;16.90;;;;;;;14.22;91.48;95397.94;4953977;29;20182;-78
2022/11/08 08:31:31;;;;;;;28.73;16.17;;;;;;;14.17;91.54;95389.88;4953625;28;20261;-77
2022/11/08 08:33:57;;;;;;;26.60;16.93;;;;;;;14.20;91.07;95391.25;4954073;29;20261;-77
2022/11/08 08:36:22;;;;;;;33.27;18.20;;;;;;;14.22;91.29;95394.47;4953667;28;20198;-76
2022/11/08 08:38:48;;;;;;;26.53;15.50;;;;;;;14.17;91.20;95387.22;4953483;29;20189;-78
2022/11/08 08:41:13;;;;;;;30.30;16.67;;;;;;;14.24;91.07;95401.19;4952428;29;20178;-79
2022/11/08 08:43:39;;;;;;;26.63;15.93;;;;;;;14.20;90.83;95400.00;4953279;29;20186;-78
2022/11/08 08:46:05;;;;;;;27.80;16.13;;;;;;;14.22;91.17;95403.25;4953481;29;20170;-77
2022/11/08 08:48:31;;;;;;;26.83;15.80;;;;;;;14.13;91.19;95383.38;4953490;28;20175;-77
2022/11/08 08:50:56;;;;;;;26.87;14.73;;;;;;;14.23;90.66;95394.28;4952133;29;20171;-77
2022/11/08 08:53:23;;;;;;;27.37;14.67;;;;;;;14.25;90.36;95389.56;4953242;28;20186;-79
2022/11/08 08:55:51;;;;;;;24.63;14.80;;;;;;;14.40;90.06;95417.56;4953220;29;20182;-80
2022/11/08 08:58:17;;;;;;;26.20;15.83;;;;;;;14.21;89.94;95393.69;4953014;28;20181;-79
2022/11/08 09:00:42;;;;;;;27.57;15.40;;;;;;;14.23;90.42;95401.41;4953146;28;20569;-79
2022/11/08 09:03:09;;;;;;;27.83;15.87;;;;;;;14.33;90.28;95405.16;4953079;29;20181;-80
2022/11/08 09:05:35;;;;;;;27.03;15.40;;;;;;;14.21;90.16;95380.44;4951652;29;20179;-79
2022/11/08 09:08:01;;;;;;;32.53;16.67;;;;;;;14.45;89.87;95401.78;4952912;28;20214;-79
2022/11/08 09:10:27;;;;;;;41.47;18.20;;;;;;;14.41;89.34;95390.84;4952875;28;20265;-79
2022/11/08 09:12:52;;;;;;;32.93;16.00;;;;;;;14.51;89.47;95407.03;4952216;28;20186;-79
2022/11/08 09:15:18;;;;;;;25.63;15.37;;;;;;;14.56;89.20;95404.53;4952864;29;20185;-79
2022/11/08 09:17:44;;;;;;;27.87;14.70;;;;;;;14.62;88.99;95398.31;4953003;29;20559;-79
2022/11/08 09:20:10;;;;;;;46.07;27.60;;;;;;;14.64;88.90;95398.94;4952684;28;20175;-79
2022/11/08 09:22:36;;;;;;;45.83;27.77;;;;;;;14.67;88.65;95402.97;4951631;28;20548;-79
2022/11/08 09:25:02;;;;;;;37.87;20.70;;;;;;;14.73;88.59;95397.59;4951501;29;20201;-79
2022/11/08 09:27:29;;;;;;;33.50;18.97;;;;;;;14.73;87.69;95410.84;4952677;29;20619;-79
2022/11/08 09:29:55;;;;;;;32.27;17.13;;;;;;;14.59;87.21;95385.53;4952486;28;20301;-79
2022/11/08 09:32:20;;;;;;;29.50;15.60;;;;;;;14.55;86.46;95372.94;4952646;29;20261;-79
2022/11/08 09:34:46;;;;;;;23.97;16.37;;;;;;;14.46;87.14;95363.69;4952551;28;20769;-79
2022/11/08 09:37:11;;;;;;;28.83;15.43;;;;;;;14.59;87.18;95397.97;4952488;29;20190;-79
2022/11/08 09:39:37;;;;;;;27.87;14.73;;;;;;;14.44;87.38;95385.13;4952552;28;20193;-79
2022/11/08 09:42:14;;;;;;;26.67;15.10;;;;;;;14.49;87.18;95389.75;4951484;29;20186;-80
2022/11/08 09:45:09;;;;;;;24.83;15.57;;;;;;;14.40;86.60;95388.41;4952965;29;20190;-79
2022/11/08 09:47:48;;;;;;;22.43;14.43;;;;;;;14.31;87.87;95383.38;4950460;29;20696;-79
2022/11/08 09:50:24;;;;;;;27.33;14.87;;;;;;;14.38;88.32;95382.50;4951142;29;20179;-79
2022/11/08 09:53:14;;;;;;;28.00;15.47;;;;;;;14.56;88.68;95385.97;4952091;29;21655;-79
2022/11/08 09:56:20;;;;;;;27.83;15.30;;;;;;;14.84;87.75;95387.28;4952191;29;20193;-79
2022/11/08 09:58:53;;;;;;;27.37;16.03;;;;;;;14.80;86.96;95371.00;4911863;29;20190;-79
2022/11/08 10:01:20;;;;;;;32.40;17.23;;;;;;;14.93;85.26;95384.09;4911953;29;20723;-79
2022/11/08 10:03:53;;;;;;;29.27;15.97;;;;;;;14.88;86.06;95360.06;4933720;29;20664;-79
2022/11/08 10:07:00;;;;;;;35.37;17.80;;;;;;;15.00;86.20;95357.47;4952376;29;20170;-79
2022/11/08 10:09:59;;;;;;;32.37;15.97;;;;;;;15.27;85.46;95369.31;4950933;29;20178;-80
2022/11/08 10:12:49;;;;;;;32.20;16.30;;;;;;;15.39;84.75;95366.72;4951776;28;20181;-79
2022/11/08 10:15:46;;;;;;;23.97;13.87;;;;;;;15.51;83.98;95375.47;4952194;28;20178;-79
2022/11/08 10:18:27;;;;;;;36.27;22.40;;;;;;;15.49;81.60;95370.41;4952065;28;20202;-79
2022/11/08 10:21:18;;;;;;;58.80;32.27;;;;;;;15.51;80.72;95369.38;4951925;28;20359;-79
2022/11/08 10:24:01;;;;;;;59.77;38.57;;;;;;;15.58;82.29;95364.78;4950521;28;20284;-79
2022/11/08 10:26:35;;;;;;;25.97;16.50;;;;;;;15.73;82.85;95363.31;4955756;29;20254;-79
2022/11/08 10:29:07;;;;;;;24.73;14.80;;;;;;;15.94;81.94;95361.94;4957797;28;20170;-78
2022/11/08 10:31:34;;;;;;;29.60;14.97;;;;;;;15.99;79.85;95362.06;4958041;28;20253;-79
2022/11/08 10:34:02;;;;;;;51.37;25.47;;;;;;;15.85;78.24;95355.34;4957350;28;20209;-79
2022/11/08 10:36:41;;;;;;;32.23;18.57;;;;;;;15.72;79.10;95351.09;4955799;29;20656;-78
2022/11/08 10:39:26;;;;;;;32.90;17.50;;;;;;;15.55;80.90;95322.81;4956920;28;20188;-79
2022/11/08 10:42:02;;;;;;;29.47;15.03;;;;;;;15.88;81.88;95338.16;4956857;28;20179;-77
2022/11/08 10:44:28;;;;;;;24.10;13.60;;;;;;;16.08;78.77;95336.75;4957168;29;20167;-78
2022/11/08 10:46:56;;;;;;;22.80;13.70;;;;;;;16.15;77.37;95332.13;4956925;29;20643;-77
2022/11/08 10:49:26;;;;;;;19.60;11.50;;;;;;;16.29;76.58;95324.69;4957064;28;20234;-78
2022/11/08 10:51:57;;;;;;;22.98;12.38;;;;;;;16.42;75.43;95347.56;4956959;29;20230;-78
2022/11/08 10:54:47;;;;;;;23.05;13.05;;;;;;;16.43;76.12;95339.31;4957096;29;20657;-78
2022/11/08 10:57:17;;;;;;;18.88;12.45;;;;;;;16.50;74.17;95337.38;4955901;29;20205;-78
2022/11/08 10:59:44;;;;;;;19.95;11.70;;;;;;;16.60;75.57;95334.88;4957009;28;20269;-79
2022/11/08 11:02:22;;;;;;;24.63;12.52;;;;;;;16.75;74.03;95338.94;4956056;29;20226;-78
2022/11/08 11:04:49;;;;;;;20.20;13.32;;;;;;;16.82;74.18;95336.94;4956761;28;20190;-79
2022/11/08 11:07:34;;;;;;;19.38;12.88;;;;;;;16.84;73.23;95326.88;4957159;28;20178;-79
2022/11/08 11:10:24;;;;;;;41.45;18.30;;;;;;;16.80;73.33;95331.84;4956918;28;20206;-80
2022/11/08 11:13:00;;;;;;;23.23;12.70;;;;;;;16.81;73.23;95324.69;4948463;29;20544;-79
2022/11/08 11:15:38;;;;;;;26.98;14.00;;;;;;;16.75;73.80;95328.28;4955858;29;20540;-79
2022/11/08 11:18:18;;;;;;;18.73;12.65;;;;;;;16.48;73.62;95293.47;4956001;29;20201;-80
2022/11/08 11:21:15;;;;;;;18.63;11.40;;;;;;;16.69;72.86;95330.03;4955588;28;20272;-79
2022/11/08 11:23:46;;;;;;;25.33;12.63;;;;;;;16.34;72.26;95277.00;4955028;28;20175;-79
2022/11/08 11:26:33;;;;;;;26.13;13.85;;;;;;;16.65;71.99;95322.78;4955095;29;20214;-79
2022/11/08 11:29:03;;;;;;;25.33;12.35;;;;;;;16.64;71.99;95318.50;4953787;29;20206;-79
2022/11/08 11:31:38;;;;;;;28.60;15.10;;;;;;;16.67;70.75;95321.50;4955311;28;20661;-79
2022/11/08 11:34:15;;;;;;;19.07;11.33;;;;;;;16.53;71.25;95304.97;4954811;28;20645;-80
2022/11/08 11:36:43;;;;;;;19.10;11.32;;;;;;;16.62;71.63;95321.41;4948059;29;20269;-79
2022/11/08 11:39:31;;;;;;;21.27;12.68;;;;;;;16.63;71.96;95315.03;4953938;28;20653;-79
2022/11/08 11:42:58;;;;;;;24.73;12.35;;;;;;;16.66;71.85;95311.09;4953764;29;20189;-79
2022/11/08 11:45:35;;;;;;;29.77;13.15;;;;;;;16.52;71.34;95291.91;4914514;29;20605;-80
2022/11/08 11:48:09;;;;;;;25.75;12.82;;;;;;;16.33;71.06;95278.03;4948964;29;20209;-79
2022/11/08 11:50:43;;;;;;;18.08;9.82;;;;;;;16.57;70.58;95308.00;4954588;29;20182;-79
2022/11/08 11:53:21;;;;;;;16.42;10.00;;;;;;;16.60;69.85;95310.19;4954464;28;20713;-79
2022/11/08 11:56:01;;;;;;;20.90;11.68;;;;;;;16.59;69.79;95305.91;4954478;28;20178;-80
2022/11/08 11:58:48;;;;;;;19.60;11.40;;;;;;;16.62;70.03;95308.09;4954308;28;20186;-80
2022/11/08 12:01:41;;;;;;;24.25;11.88;;;;;;;16.68;70.43;95301.03;4954248;29;20189;-79
2022/11/08 12:04:21;;;;;;;22.48;11.48;;;;;;;16.67;70.40;95304.75;4954077;28;20751;-79
2022/11/08 12:06:54;;;;;;;15.65;9.85;;;;;;;16.53;69.82;95288.22;4954539;28;20597;-79
2022/11/08 12:09:19;;;;;;;16.50;9.88;;;;;;;16.56;69.18;95279.78;4953868;29;20210;-79
2022/11/08 12:12:17;;;;;;;17.48;9.55;;;;;;;16.53;69.04;95269.63;4954124;28;20175;-80
2022/11/08 12:14:59;;;;;;;24.40;11.50;;;;;;;16.73;69.46;95299.28;4954026;28;20178;-79
2022/11/08 12:17:34;;;;;;;19.25;10.30;;;;;;;16.75;68.77;95286.56;4954431;28;20198;-79
2022/11/08 12:20:20;;;;;;;17.98;10.25;;;;;;;16.84;68.54;95293.13;4953888;28;20212;-79
2022/11/08 12:23:07;;;;;;;17.30;9.68;;;;;;;16.86;68.42;95285.72;4953715;29;20178;-79
2022/11/08 12:26:01;;;;;;;14.35;9.07;;;;;;;16.64;67.90;95242.22;4954075;28;20676;-79
2022/11/08 12:28:42;;;;;;;18.23;9.38;;;;;;;16.77;67.71;95259.75;4953909;29;20266;-79
2022/11/08 12:31:25;;;;;;;16.95;9.10;;;;;;;16.96;67.04;95280.53;4954028;29;20182;-79
2022/11/08 12:34:12;;;;;;;20.52;10.70;;;;;;;16.85;67.28;95284.09;4953865;28;20660;-79
2022/11/08 12:36:44;;;;;;;16.58;10.02;;;;;;;16.63;67.50;95253.91;4953701;28;20213;-79
2022/11/08 12:39:21;;;;;;;14.35;8.70;;;;;;;16.94;67.39;95280.00;4953695;28;20185;-80
2022/11/08 12:41:55;;;;;;;12.95;8.48;;;;;;;17.03;65.98;95272.44;4953834;28;20213;-79
2022/11/08 12:44:45;;;;;;;13.75;8.73;;;;;;;17.20;66.05;95275.91;4953485;28;20178;-79
2022/11/08 12:47:22;;;;;;;14.20;8.43;;;;;;;17.23;65.62;95272.75;4952665;28;20546;-79
2022/11/08 12:49:56;;;;;;;17.48;11.38;;;;;;;17.24;65.83;95279.69;4955188;29;20182;-80
2022/11/08 12:52:30;;;;;;;17.98;10.75;;;;;;;17.12;65.89;95281.63;4954930;29;20225;-80
2022/11/08 12:55:04;;;;;;;20.13;11.43;;;;;;;17.02;65.95;95275.31;4954559;28;20700;-79
2022/11/08 12:57:31;;;;;;;17.38;10.02;;;;;;;16.88;66.16;95274.81;4954440;28;20713;-79
2022/11/08 13:00:05;;;;;;;17.55;9.60;;;;;;;16.68;66.56;95267.28;4953656;28;20186;-79
2022/11/08 13:02:36;;;;;;;23.38;13.20;;;;;;;16.55;66.42;95280.81;4952765;28;20182;-78
2022/11/08 13:05:30;;;;;;;32.00;14.05;;;;;;;16.40;67.09;95268.06;4953095;28;20201;-78
2022/11/08 13:08:30;;;;;;;26.90;13.70;;;;;;;16.40;67.72;95275.22;4952891;28;20208;-78
2022/11/08 13:10:56;;;;;;;22.52;11.73;;;;;;;16.37;68.04;95271.19;4934841;29;20191;-78
2022/11/08 13:13:26;;;;;;;16.13;9.50;;;;;;;16.42;68.25;95273.97;4961146;28;20190;-78
2022/11/08 13:16:10;;;;;;;16.85;9.10;;;;;;;16.48;67.72;95278.31;4954439;28;20182;-77
2022/11/08 13:19:00;;;;;;;16.30;9.70;;;;;;;16.44;67.62;95261.22;4954452;28;20557;-78
2022/11/08 13:21:30;;;;;;;15.98;8.77;;;;;;;16.60;67.32;95273.75;4952312;28;20233;-78
2022/11/08 13:24:01;;;;;;;17.73;10.00;;;;;;;16.57;67.33;95260.13;4952136;29;20182;-78
2022/11/08 13:26:29;;;;;;;19.52;9.45;;;;;;;16.69;67.60;95273.44;4953478;28;20202;-78
2022/11/08 13:29:11;;;;;;;19.30;10.25;;;;;;;16.54;67.69;95244.66;4953758;29;20171;-78
2022/11/08 13:31:37;;;;;;;22.50;9.45;;;;;;;16.74;67.20;95279.63;4954320;28;20183;-78
2022/11/08 13:34:20;;;;;;;14.07;8.82;;;;;;;16.66;67.95;95277.34;4953242;29;20696;-78
2022/11/08 13:36:53;;;;;;;17.40;8.85;;;;;;;16.38;68.05;95242.75;4954244;29;20688;-78
2022/11/08 13:39:27;;;;;;;15.20;8.27;;;;;;;16.59;67.83;95274.81;4946468;29;20209;-78
2022/11/08 13:42:00;;;;;;;13.32;8.27;;;;;;;16.56;68.06;95283.25;4953757;28;20194;-78
2022/11/08 13:45:07;;;;;;;19.67;8.10;;;;;;;16.51;68.64;95271.72;4953693;29;20189;-78
2022/11/08 13:47:35;;;;;;;14.57;8.55;;;;;;;16.54;67.86;95282.69;4945460;28;20318;-78
2022/11/08 13:50:32;;;;;;;15.25;9.35;;;;;;;16.50;68.49;95278.91;4953440;29;20205;-78
2022/11/08 13:53:07;;;;;;;16.02;9.23;;;;;;;16.46;68.64;95288.38;4951467;29;20308;-78
2022/11/08 13:55:42;;;;;;;18.23;10.27;;;;;;;16.42;68.54;95281.94;4952016;29;20186;-78
2022/11/08 13:58:29;;;;;;;14.50;8.85;;;;;;;16.40;68.40;95284.00;4953502;28;20194;-78
2022/11/08 14:00:55;;;;;;;15.48;9.80;;;;;;;16.37;67.95;95286.31;4953809;29;20663;-78
2022/11/08 14:03:32;;;;;;;25.27;9.20;;;;;;;16.32;68.52;95288.88;4953950;28;20201;-78
2022/11/08 14:06:04;;;;;;;19.20;9.82;;;;;;;16.27;68.47;95284.25;4953788;28;20241;-78
2022/11/08 14:08:52;;;;;;;13.13;8.75;;;;;;;16.21;68.41;95280.72;4953978;29;20241;-78
2022/11/08 14:11:39;;;;;;;16.70;8.80;;;;;;;16.13;68.49;95278.41;4953822;29;20570;-78
2022/11/08 14:14:19;;;;;;;17.17;8.48;;;;;;;16.06;68.66;95277.75;4948157;28;20174;-78
2022/11/08 14:17:03;;;;;;;15.52;8.23;;;;;;;16.04;68.61;95277.16;4953614;29;20234;-78
2022/11/08 14:19:31;;;;;;;16.85;9.27;;;;;;;15.97;68.47;95278.34;4953473;29;20202;-78
2022/11/08 14:21:59;;;;;;;42.08;16.70;;;;;;;15.88;69.05;95275.22;4953657;28;20179;-78
2022/11/08 14:24:28;;;;;;;35.97;17.45;;;;;;;15.81;68.99;95274.56;4953526;28;20174;-78
2022/11/08 14:26:54;;;;;;;29.55;15.57;;;;;;;15.77;69.40;95282.16;4953765;28;20568;-78
2022/11/08 14:29:22;;;;;;;27.50;12.90;;;;;;;15.71;69.36;95282.28;4953795;29;20225;-78
2022/11/08 14:32:00;;;;;;;22.15;11.43;;;;;;;15.66;69.44;95279.50;4952416;29;20205;-77
2022/11/08 14:34:30;;;;;;;24.77;11.25;;;;;;;15.60;69.62;95281.25;4952655;28;20724;-77
2022/11/08 14:36:56;;;;;;;24.13;11.15;;;;;;;15.56;69.97;95287.28;4952797;28;20589;-78
2022/11/08 14:39:33;;;;;;;19.52;10.93;;;;;;;15.45;70.14;95284.34;4952859;28;20183;-77
2022/11/08 14:42:01;;;;;;;20.25;10.73;;;;;;;15.43;70.44;95288.25;4952781;28;20722;-77
2022/11/08 14:44:28;;;;;;;18.83;10.40;;;;;;;15.34;70.36;95279.84;4952285;28;20178;-77
2022/11/08 14:46:54;;;;;;;22.07;11.17;;;;;;;15.30;70.39;95297.25;4953000;29;20178;-78
2022/11/08 14:49:21;;;;;;;28.90;12.10;;;;;;;15.24;71.06;95292.03;4951473;29;20593;-77
2022/11/08 14:51:47;;;;;;;23.90;12.60;;;;;;;15.15;71.12;95294.22;4953142;28;20191;-78
2022/11/08 14:54:25;;;;;;;37.60;12.00;;;;;;;15.05;71.69;95292.13;4952856;28;20226;-78
2022/11/08 14:56:50;;;;;;;27.40;13.63;;;;;;;14.86;72.08;95269.38;4952917;28;20198;-78
2022/11/08 14:59:18;;;;;;;38.97;13.10;;;;;;;14.85;72.44;95285.50;4952585;28;20250;-78
2022/11/08 15:01:47;;;;;;;39.03;15.77;;;;;;;14.82;73.19;95289.41;4953097;28;20189;-78
2022/11/08 15:04:15;;;;;;;44.37;15.57;;;;;;;14.68;73.36;95294.09;4952646;28;20190;-78
2022/11/08 15:06:45;;;;;;;38.20;18.17;;;;;;;14.56;74.06;95282.66;4952894;29;20189;-78
2022/11/08 15:09:23;;;;;;;42.73;16.93;;;;;;;14.45;74.47;95272.81;4952763;28;20705;-78
2022/11/08 15:11:53;;;;;;;46.93;23.43;;;;;;;14.43;74.58;95277.53;4964069;28;20683;-76
2022/11/08 15:14:25;;;;;;;55.93;27.97;;;;;;;14.33;75.02;95271.94;4955269;28;20729;-76
2022/11/08 15:16:55;;;;;;;64.97;31.47;;;;;;;14.26;75.21;95269.38;4955981;28;20210;-76
2022/11/08 15:19:43;;;;;;;55.03;28.70;;;;;;;14.22;75.62;95270.03;4955719;28;20181;-76
2022/11/08 15:22:28;;;;;;;59.07;30.83;;;;;;;14.19;75.51;95273.09;4955531;28;20179;-76
2022/11/08 15:25:18;;;;;;;57.47;29.33;;;;;;;14.10;75.96;95275.25;4955313;28;20181;-76
2022/11/08 15:27:53;;;;;;;53.93;29.33;;;;;;;14.04;76.08;95273.50;4955721;29;20186;-76
2022/11/08 15:30:35;;;;;;;57.40;28.13;;;;;;;13.83;76.25;95250.94;4955482;29;20182;-76
2022/11/08 15:33:02;;;;;;;57.40;27.23;;;;;;;13.93;76.12;95274.22;4955520;29;20182;-76
2022/11/08 15:35:36;;;;;;;45.27;24.90;;;;;;;14.02;75.75;95285.31;4955084;29;20265;-77
2022/11/08 15:38:04;;;;;;;45.10;24.80;;;;;;;13.85;75.81;95266.59;4955301;28;20685;-77
2022/11/08 15:40:32;;;;;;;50.57;24.10;;;;;;;13.85;75.81;95275.34;4955331;28;20232;-77
2022/11/08 15:42:59;;;;;;;41.97;22.37;;;;;;;13.88;76.42;95296.06;4955333;28;20174;-77
2022/11/08 15:45:34;;;;;;;41.47;21.20;;;;;;;13.80;76.37;95285.78;4954864;29;20577;-77
2022/11/08 15:48:21;;;;;;;43.87;18.30;;;;;;;13.79;76.78;95289.44;4955362;29;20242;-77
2022/11/08 15:50:47;;;;;;;41.17;19.13;;;;;;;13.80;76.68;95288.44;4955196;28;20244;-77
2022/11/08 15:53:13;;;;;;;48.77;18.40;;;;;;;13.49;77.01;95248.88;4953864;29;20230;-77
2022/11/08 15:55:47;;;;;;;101.07;30.20;;;;;;;13.62;77.03;95283.13;4955624;28;20178;-77
2022/11/08 15:58:27;;;;;;;46.17;19.63;;;;;;;13.65;77.53;95289.81;4955184;28;20325;-75
2022/11/08 16:00:53;;;;;;;61.97;21.87;;;;;;;13.58;77.58;95300.44;4955152;29;20178;-75
2022/11/08 16:03:18;;;;;;;51.47;19.53;;;;;;;13.59;77.74;95302.06;4955341;28;20178;-76
2022/11/08 16:05:44;;;;;;;51.93;21.83;;;;;;;13.53;77.59;95301.09;4955097;28;20190;-76
2022/11/08 16:08:09;;;;;;;58.23;21.23;;;;;;;13.48;78.07;95295.69;4948643;29;20174;-76
2022/11/08 16:10:41;;;;;;;57.07;21.00;;;;;;;13.43;77.99;95306.06;4955443;29;20558;-76
2022/11/08 16:13:14;;;;;;;54.50;20.50;;;;;;;13.37;78.32;95306.16;4954229;29;20269;-76
2022/11/08 16:15:40;;;;;;;59.50;26.70;;;;;;;13.17;78.61;95282.50;4951894;29;20647;-76
2022/11/08 16:18:05;;;;;;;70.67;30.77;;;;;;;13.14;79.01;95281.13;4953399;29;20202;-77
2022/11/08 16:20:35;;;;;;;78.53;30.67;;;;;;;13.15;79.49;95305.69;4954487;28;20178;-76
2022/11/08 16:23:07;;;;;;;68.10;30.37;;;;;;;13.01;79.76;95298.88;4954348;28;20186;-76
2022/11/08 16:25:44;;;;;;;70.10;27.40;;;;;;;13.00;80.23;95307.81;4954630;28;20179;-76
2022/11/08 16:28:28;;;;;;;67.93;31.77;;;;;;;12.86;80.63;95299.19;4954312;29;20174;-76
2022/11/08 16:30:55;;;;;;;75.60;33.17;;;;;;;12.83;81.09;95303.06;4949334;29;20173;-76
2022/11/08 16:33:29;;;;;;;71.57;33.53;;;;;;;12.81;81.22;95307.75;4954319;28;20178;-76
2022/11/08 16:35:57;;;;;;;74.47;35.70;;;;;;;12.56;81.52;95291.03;4953565;28;20241;-76
2022/11/08 16:38:46;;;;;;;74.03;37.90;;;;;;;12.68;81.80;95314.94;4953519;29;20193;-76
2022/11/08 16:41:12;;;;;;;70.93;36.43;;;;;;;12.56;81.96;95300.78;4950414;29;20188;-76
2022/11/08 16:43:38;;;;;;;78.83;36.83;;;;;;;12.56;82.24;95319.25;4952806;28;20183;-76
2022/11/08 16:46:04;;;;;;;77.57;37.33;;;;;;;12.38;82.24;95297.00;4953742;29;20629;-77
2022/11/08 16:48:30;;;;;;;71.63;36.93;;;;;;;12.45;82.71;95320.75;4953200;29;20175;-76
2022/11/08 16:51:00;;;;;;;74.50;34.43;;;;;;;12.39;82.56;95316.31;4954690;29;20187;-77
2022/11/08 16:53:26;;;;;;;75.23;34.43;;;;;;;12.36;83.04;95322.03;4950687;29;20233;-76
2022/11/08 16:55:51;;;;;;;61.53;30.60;;;;;;;12.08;82.93;95293.31;4949629;29;20186;-75
2022/11/08 16:58:17;;;;;;;61.13;28.60;;;;;;;12.16;83.88;95327.38;4943194;29;20245;-76
2022/11/08 17:00:43;;;;;;;50.23;24.93;;;;;;;12.00;84.19;95319.94;4947201;29;20273;-75
2022/11/08 17:03:18;;;;;;;53.17;25.93;;;;;;;11.88;85.08;95324.22;4947359;29;20668;-76
2022/11/08 17:05:44;;;;;;;58.60;25.83;;;;;;;11.89;85.27;95326.66;4940459;29;20747;-76
2022/11/08 17:08:09;;;;;;;58.07;28.90;;;;;;;11.99;85.06;95329.66;4942755;29;20258;-76
2022/11/08 17:10:35;;;;;;;62.57;29.93;;;;;;;12.07;85.03;95331.25;4945578;29;20222;-76
2022/11/08 17:13:00;;;;;;;57.40;28.30;;;;;;;12.10;84.71;95336.13;4946081;29;20257;-76
2022/11/08 17:15:27;;;;;;;56.43;27.77;;;;;;;12.14;84.97;95345.25;4947716;29;20178;-76
2022/11/08 17:17:54;;;;;;;65.03;29.80;;;;;;;12.00;84.64;95325.19;4942295;29;20206;-76
2022/11/08 17:20:20;;;;;;;54.77;27.50;;;;;;;12.00;84.84;95328.66;4944191;29;20187;-76
2022/11/08 17:22:47;;;;;;;53.93;27.87;;;;;;;12.16;84.66;95348.50;4937394;29;20225;-76
2022/11/08 17:25:15;;;;;;;57.87;28.30;;;;;;;12.25;84.22;95352.53;4944185;29;20194;-76
2022/11/08 17:27:41;;;;;;;66.97;30.60;;;;;;;12.27;84.64;95349.69;4944020;28;20265;-77
2022/11/08 17:30:08;;;;;;;55.20;25.13;;;;;;;12.23;84.52;95346.63;4949937;29;20724;-78
2022/11/08 17:32:34;;;;;;;65.67;32.37;;;;;;;12.35;84.51;95357.38;4952057;28;20346;-78
2022/11/08 17:35:01;;;;;;;59.67;30.90;;;;;;;12.32;84.96;95355.94;4949674;29;20186;-77
2022/11/08 17:37:26;;;;;;;47.07;24.10;;;;;;;12.40;84.20;95353.06;4953776;29;20206;-78
2022/11/08 17:39:54;;;;;;;55.70;29.90;;;;;;;12.33;84.18;95339.09;4953374;28;20186;-78
2022/11/08 17:42:20;;;;;;;43.13;23.50;;;;;;;12.39;83.98;95332.16;4951267;29;20170;-78
2022/11/08 17:44:45;;;;;;;65.33;30.90;;;;;;;12.50;83.56;95351.81;4941498;29;20186;-78
2022/11/08 17:47:11;;;;;;;59.60;31.43;;;;;;;12.53;83.76;95356.69;4941393;29;20612;-78
2022/11/08 17:49:36;;;;;;;53.77;30.20;;;;;;;12.56;84.08;95356.25;4967002;28;20708;-78
2022/11/08 17:52:02;;;;;;;58.33;30.87;;;;;;;12.56;83.91;95353.59;4952398;28;20187;-78
2022/11/08 17:54:28;;;;;;;63.30;32.97;;;;;;;12.51;83.99;95342.88;4951353;29;20284;-78
2022/11/08 17:56:55;;;;;;;67.93;35.03;;;;;;;12.54;83.98;95345.09;4942805;29;20704;-77
2022/11/08 17:59:20;;;;;;;67.60;38.17;;;;;;;12.54;83.98;95351.16;4939361;29;20202;-76
2022/11/08 18:01:46;;;;;;;67.33;32.40;;;;;;;12.47;84.24;95335.34;4948012;29;20186;-76
2022/11/08 18:04:13;;;;;;;66.47;35.57;;;;;;;12.58;83.98;95355.03;4952492;29;20661;-76
2022/11/08 18:06:39;;;;;;;68.70;35.83;;;;;;;12.59;83.91;95350.56;4939388;29;20289;-76
2022/11/08 18:09:05;;;;;;;81.27;40.53;;;;;;;12.60;83.96;95349.53;4943991;28;20832;-76
2022/11/08 18:11:31;;;;;;;80.53;41.70;;;;;;;12.54;83.82;95351.16;4946936;29;20185;-78
2022/11/08 18:13:56;;;;;;;74.43;37.90;;;;;;;12.55;83.82;95351.97;4946164;29;20704;-78
2022/11/08 18:16:22;;;;;;;75.10;39.50;;;;;;;12.48;84.13;95339.63;4950284;29;20228;-78
2022/11/08 18:18:49;;;;;;;75.93;43.57;;;;;;;12.50;83.86;95349.97;4948479;29;20651;-79
2022/11/08 18:21:17;;;;;;;79.23;40.73;;;;;;;12.38;84.08;95335.81;4949638;29;20591;-78
2022/11/08 18:23:45;;;;;;;89.33;50.07;;;;;;;12.44;84.38;95348.19;4948064;28;20665;-79
2022/11/08 18:26:12;;;;;;;107.00;57.27;;;;;;;12.44;84.42;95343.72;4950398;29;20645;-77
2022/11/08 18:28:40;;;;;;;95.70;53.37;;;;;;;12.37;84.51;95340.28;4944828;28;20202;-78
2022/11/08 18:31:14;;;;;;;96.70;49.63;;;;;;;12.20;84.95;95311.91;4934996;29;20186;-77
2022/11/08 18:33:40;;;;;;;75.13;41.10;;;;;;;12.36;84.95;95332.59;4946187;29;20302;-79
2022/11/08 18:36:12;;;;;;;89.20;45.97;;;;;;;12.48;84.70;95342.25;4949985;28;20213;-78
2022/11/08 18:38:39;;;;;;;77.50;43.07;;;;;;;12.40;84.27;95334.59;4956281;28;20656;-78
2022/11/08 18:41:06;;;;;;;80.13;43.47;;;;;;;12.29;84.52;95313.31;4944507;29;20183;-78
2022/11/08 18:43:32;;;;;;;92.07;45.47;;;;;;;12.47;84.62;95351.19;4950203;28;20646;-78
2022/11/08 18:46:06;;;;;;;81.20;42.17;;;;;;;12.40;84.43;95336.41;4952323;29;20221;-77
2022/11/08 18:48:34;;;;;;;80.40;43.37;;;;;;;12.55;84.39;95355.44;4950487;29;20202;-78
2022/11/08 18:51:01;;;;;;;89.20;46.47;;;;;;;12.47;84.66;95335.34;4958985;28;20197;-77
2022/11/08 18:53:27;;;;;;;91.07;46.87;;;;;;;12.51;84.31;95345.50;4943389;28;20273;-77
2022/11/08 18:55:52;;;;;;;95.43;49.43;;;;;;;12.62;84.62;95363.34;4967963;28;21233;-78
2022/11/08 18:58:18;;;;;;;84.63;44.23;;;;;;;12.41;84.53;95322.19;4947287;29;20202;-78
2022/11/08 19:00:45;;;;;;;94.90;45.23;;;;;;;12.56;84.58;95345.69;4954996;28;20178;-77
2022/11/08 19:03:10;;;;;;;96.23;46.20;;;;;;;12.37;84.14;95303.31;4948568;29;20210;-79
2022/11/08 19:05:36;;;;;;;95.37;44.50;;;;;;;12.64;83.97;95345.44;4961193;28;20237;-78
2022/11/08 19:08:01;;;;;;;92.00;45.07;;;;;;;12.60;84.14;95345.06;4949261;29;20245;-78
2022/11/08 19:10:27;;;;;;;82.33;43.10;;;;;;;12.56;84.26;95343.84;4966569;28;20250;-80
2022/11/08 19:12:54;;;;;;;98.00;45.73;;;;;;;12.69;84.15;95362.28;4952782;29;20201;-81
2022/11/08 19:15:21;;;;;;;85.77;43.40;;;;;;;12.49;83.97;95348.34;4946254;28;20242;-81
2022/11/08 19:17:52;;;;;;;93.13;44.17;;;;;;;12.54;83.96;95345.09;4949194;29;20202;-80
2022/11/08 19:20:19;;;;;;;88.33;44.77;;;;;;;12.41;83.87;95325.66;4949034;29;20182;-81
2022/11/08 19:22:45;;;;;;;89.47;42.70;;;;;;;11.93;84.00;95254.00;4948033;29;20193;-80
2022/11/08 19:25:11;;;;;;;66.67;34.47;;;;;;;11.46;84.22;95188.38;4951099;28;20190;-81
2022/11/08 19:27:37;;;;;;;70.63;36.03;;;;;;;12.35;84.07;95336.25;4948863;28;20649;-81
2022/11/08 19:30:03;;;;;;;71.47;36.37;;;;;;;12.57;84.06;95377.16;4948026;28;20216;-79
2022/11/08 19:32:30;;;;;;;50.53;25.67;;;;;;;11.72;84.08;95247.13;4953018;29;20186;-81
2022/11/08 19:34:55;;;;;;;60.73;29.77;;;;;;;12.40;84.57;95361.00;4954346;29;20299;-80